sensor_id;sensor_type;location;lat;lon;timestamp;P1;durP1;ratioP1;P2;durP2;ratioP2
40737;SDS011;54759;48.094;-1.628;2022-10-17T00:02:23;1.23;;;0.75;;
40737;SDS011;54759;48.094;-1.628;2022-10-17T00:05:24;0.73;;;0.60;;
40737;SDS011;54759;48.094;-1.628;2022-10-17T00:11:27;0.77;;;0.70;;
40737;SDS011;54759;48.094;-1.628;2022-10-17T00:17:30;1.00;;;0.70;;
40737;SDS011;54759;48.094;-1.628;2022-10-17T00:20:33;1.20;;;0.77;;
40737;SDS011;54759;48.094;-1.628;2022-10-17T00:23:35;1.10;;;0.80;;
40737;SDS011;54759;48.094;-1.628;2022-10-17T00:29:39;0.90;;;0.60;;
40737;SDS011;54759;48.094;-1.628;2022-10-17T00:32:40;0.95;;;0.80;;
40737;SDS011;54759;48.094;-1.628;2022-10-17T00:35:42;0.95;;;0.80;;
40737;SDS011;54759;48.094;-1.628;2022-10-17T00:41:46;1.33;;;0.82;;
40737;SDS011;54759;48.094;-1.628;2022-10-17T00:48:13;1.00;;;0.80;;
40737;SDS011;54759;48.094;-1.628;2022-10-17T00:51:22;0.70;;;0.50;;
40737;SDS011;54759;48.094;-1.628;2022-10-17T00:54:30;0.77;;;0.68;;
40737;SDS011;54759;48.094;-1.628;2022-10-17T00:57:34;1.73;;;0.70;;
40737;SDS011;54759;48.094;-1.628;2022-10-17T01:00:36;0.95;;;0.80;;
40737;SDS011;54759;48.094;-1.628;2022-10-17T01:03:38;0.65;;;0.47;;
40737;SDS011;54759;48.094;-1.628;2022-10-17T01:09:42;0.82;;;0.65;;
40737;SDS011;54759;48.094;-1.628;2022-10-17T01:12:51;0.47;;;0.47;;
40737;SDS011;54759;48.094;-1.628;2022-10-17T01:16:06;0.98;;;0.75;;
40737;SDS011;54759;48.094;-1.628;2022-10-17T01:19:23;0.82;;;0.60;;
40737;SDS011;54759;48.094;-1.628;2022-10-17T01:22:36;0.90;;;0.60;;
40737;SDS011;54759;48.094;-1.628;2022-10-17T01:25:49;0.90;;;0.70;;
40737;SDS011;54759;48.094;-1.628;2022-10-17T01:29:00;0.93;;;0.73;;
40737;SDS011;54759;48.094;-1.628;2022-10-17T01:32:16;0.60;;;0.52;;
40737;SDS011;54759;48.094;-1.628;2022-10-17T01:35:21;0.90;;;0.60;;
40737;SDS011;54759;48.094;-1.628;2022-10-17T01:38:28;0.47;;;0.47;;
40737;SDS011;54759;48.094;-1.628;2022-10-17T01:41:34;0.52;;;0.52;;
40737;SDS011;54759;48.094;-1.628;2022-10-17T01:44:41;0.80;;;0.70;;
40737;SDS011;54759;48.094;-1.628;2022-10-17T01:47:49;0.80;;;0.70;;
40737;SDS011;54759;48.094;-1.628;2022-10-17T01:50:53;0.90;;;0.70;;
40737;SDS011;54759;48.094;-1.628;2022-10-17T01:54:01;0.60;;;0.50;;
40737;SDS011;54759;48.094;-1.628;2022-10-17T01:57:09;0.57;;;0.38;;
40737;SDS011;54759;48.094;-1.628;2022-10-17T02:00:16;0.85;;;0.60;;
40737;SDS011;54759;48.094;-1.628;2022-10-17T02:03:25;0.45;;;0.45;;
40737;SDS011;54759;48.094;-1.628;2022-10-17T02:06:28;0.50;;;0.47;;
40737;SDS011;54759;48.094;-1.628;2022-10-17T02:09:34;0.70;;;0.55;;
40737;SDS011;54759;48.094;-1.628;2022-10-17T02:12:40;0.50;;;0.40;;
40737;SDS011;54759;48.094;-1.628;2022-10-17T02:15:56;0.50;;;0.50;;
40737;SDS011;54759;48.094;-1.628;2022-10-17T02:19:07;0.73;;;0.60;;
40737;SDS011;54759;48.094;-1.628;2022-10-17T02:22:26;0.65;;;0.43;;
40737;SDS011;54759;48.094;-1.628;2022-10-17T02:25:36;0.60;;;0.50;;
40737;SDS011;54759;48.094;-1.628;2022-10-17T02:28:43;1.42;;;0.57;;
40737;SDS011;54759;48.094;-1.628;2022-10-17T02:31:54;0.88;;;0.73;;
40737;SDS011;54759;48.094;-1.628;2022-10-17T02:35:01;0.88;;;0.50;;
40737;SDS011;54759;48.094;-1.628;2022-10-17T02:38:05;0.52;;;0.45;;
40737;SDS011;54759;48.094;-1.628;2022-10-17T02:41:12;0.50;;;0.50;;
40737;SDS011;54759;48.094;-1.628;2022-10-17T02:44:16;0.65;;;0.50;;
40737;SDS011;54759;48.094;-1.628;2022-10-17T02:47:21;0.52;;;0.47;;
40737;SDS011;54759;48.094;-1.628;2022-10-17T02:50:28;0.80;;;0.50;;
40737;SDS011;54759;48.094;-1.628;2022-10-17T02:53:35;0.80;;;0.60;;
40737;SDS011;54759;48.094;-1.628;2022-10-17T02:56:45;0.50;;;0.40;;
40737;SDS011;54759;48.094;-1.628;2022-10-17T02:59:56;0.38;;;0.38;;
40737;SDS011;54759;48.094;-1.628;2022-10-17T03:02:59;0.50;;;0.50;;
40737;SDS011;54759;48.094;-1.628;2022-10-17T03:09:03;0.60;;;0.50;;
40737;SDS011;54759;48.094;-1.628;2022-10-17T03:12:05;0.43;;;0.43;;
40737;SDS011;54759;48.094;-1.628;2022-10-17T03:15:08;0.80;;;0.60;;
40737;SDS011;54759;48.094;-1.628;2022-10-17T03:18:10;0.40;;;0.40;;
40737;SDS011;54759;48.094;-1.628;2022-10-17T03:21:13;0.82;;;0.60;;
40737;SDS011;54759;48.094;-1.628;2022-10-17T03:24:14;0.60;;;0.40;;
40737;SDS011;54759;48.094;-1.628;2022-10-17T03:27:16;0.60;;;0.40;;
40737;SDS011;54759;48.094;-1.628;2022-10-17T03:30:19;0.52;;;0.40;;
40737;SDS011;54759;48.094;-1.628;2022-10-17T03:33:20;0.50;;;0.50;;
40737;SDS011;54759;48.094;-1.628;2022-10-17T03:39:24;0.63;;;0.45;;
40737;SDS011;54759;48.094;-1.628;2022-10-17T03:42:27;0.80;;;0.52;;
40737;SDS011;54759;48.094;-1.628;2022-10-17T03:45:28;0.40;;;0.40;;
40737;SDS011;54759;48.094;-1.628;2022-10-17T03:48:30;0.70;;;0.60;;
40737;SDS011;54759;48.094;-1.628;2022-10-17T03:51:33;0.82;;;0.60;;
40737;SDS011;54759;48.094;-1.628;2022-10-17T03:54:45;0.63;;;0.50;;
40737;SDS011;54759;48.094;-1.628;2022-10-17T03:57:47;0.50;;;0.30;;
40737;SDS011;54759;48.094;-1.628;2022-10-17T04:00:53;0.90;;;0.50;;
40737;SDS011;54759;48.094;-1.628;2022-10-17T04:03:55;0.52;;;0.50;;
40737;SDS011;54759;48.094;-1.628;2022-10-17T04:07:01;0.70;;;0.57;;
40737;SDS011;54759;48.094;-1.628;2022-10-17T04:10:03;0.70;;;0.32;;
40737;SDS011;54759;48.094;-1.628;2022-10-17T04:13:05;0.73;;;0.60;;
40737;SDS011;54759;48.094;-1.628;2022-10-17T04:16:10;0.70;;;0.40;;
40737;SDS011;54759;48.094;-1.628;2022-10-17T04:19:21;0.68;;;0.52;;
40737;SDS011;54759;48.094;-1.628;2022-10-17T04:22:24;0.40;;;0.40;;
40737;SDS011;54759;48.094;-1.628;2022-10-17T04:25:26;0.38;;;0.30;;
40737;SDS011;54759;48.094;-1.628;2022-10-17T04:28:28;0.50;;;0.47;;
40737;SDS011;54759;48.094;-1.628;2022-10-17T04:31:30;0.45;;;0.40;;
40737;SDS011;54759;48.094;-1.628;2022-10-17T04:34:43;0.40;;;0.40;;
40737;SDS011;54759;48.094;-1.628;2022-10-17T04:37:48;0.60;;;0.47;;
40737;SDS011;54759;48.094;-1.628;2022-10-17T04:40:51;0.60;;;0.40;;
40737;SDS011;54759;48.094;-1.628;2022-10-17T04:43:53;0.60;;;0.40;;
40737;SDS011;54759;48.094;-1.628;2022-10-17T04:46:55;0.70;;;0.50;;
40737;SDS011;54759;48.094;-1.628;2022-10-17T04:52:59;0.50;;;0.40;;
40737;SDS011;54759;48.094;-1.628;2022-10-17T04:56:00;0.40;;;0.40;;
40737;SDS011;54759;48.094;-1.628;2022-10-17T04:59:08;0.40;;;0.40;;
40737;SDS011;54759;48.094;-1.628;2022-10-17T05:02:13;0.38;;;0.30;;
40737;SDS011;54759;48.094;-1.628;2022-10-17T05:05:14;0.50;;;0.45;;
40737;SDS011;54759;48.094;-1.628;2022-10-17T05:08:19;0.50;;;0.50;;
40737;SDS011;54759;48.094;-1.628;2022-10-17T05:11:22;0.47;;;0.40;;
40737;SDS011;54759;48.094;-1.628;2022-10-17T05:14:28;0.65;;;0.65;;
40737;SDS011;54759;48.094;-1.628;2022-10-17T05:17:29;0.50;;;0.43;;
40737;SDS011;54759;48.094;-1.628;2022-10-17T05:20:36;0.50;;;0.40;;
40737;SDS011;54759;48.094;-1.628;2022-10-17T05:23:40;0.40;;;0.30;;
40737;SDS011;54759;48.094;-1.628;2022-10-17T05:26:42;0.50;;;0.50;;
40737;SDS011;54759;48.094;-1.628;2022-10-17T05:29:44;0.40;;;0.40;;
40737;SDS011;54759;48.094;-1.628;2022-10-17T05:32:54;0.40;;;0.40;;
40737;SDS011;54759;48.094;-1.628;2022-10-17T05:35:55;0.98;;;0.63;;
40737;SDS011;54759;48.094;-1.628;2022-10-17T05:39:04;0.22;;;0.20;;
40737;SDS011;54759;48.094;-1.628;2022-10-17T05:42:10;0.40;;;0.30;;
40737;SDS011;54759;48.094;-1.628;2022-10-17T05:45:12;0.55;;;0.47;;
40737;SDS011;54759;48.094;-1.628;2022-10-17T05:48:14;0.50;;;0.38;;
40737;SDS011;54759;48.094;-1.628;2022-10-17T05:51:15;0.55;;;0.45;;
40737;SDS011;54759;48.094;-1.628;2022-10-17T05:54:18;0.73;;;0.50;;
40737;SDS011;54759;48.094;-1.628;2022-10-17T05:57:19;0.60;;;0.40;;
40737;SDS011;54759;48.094;-1.628;2022-10-17T06:00:21;0.75;;;0.38;;
40737;SDS011;54759;48.094;-1.628;2022-10-17T06:03:30;0.50;;;0.40;;
40737;SDS011;54759;48.094;-1.628;2022-10-17T06:06:35;0.32;;;0.30;;
40737;SDS011;54759;48.094;-1.628;2022-10-17T06:09:38;0.70;;;0.45;;
40737;SDS011;54759;48.094;-1.628;2022-10-17T06:12:39;0.45;;;0.38;;
40737;SDS011;54759;48.094;-1.628;2022-10-17T06:15:41;0.30;;;0.30;;
40737;SDS011;54759;48.094;-1.628;2022-10-17T06:18:43;0.30;;;0.30;;
40737;SDS011;54759;48.094;-1.628;2022-10-17T06:21:45;0.38;;;0.32;;
40737;SDS011;54759;48.094;-1.628;2022-10-17T06:24:51;0.60;;;0.35;;
40737;SDS011;54759;48.094;-1.628;2022-10-17T06:27:53;0.30;;;0.30;;
40737;SDS011;54759;48.094;-1.628;2022-10-17T06:30:55;0.73;;;0.40;;
40737;SDS011;54759;48.094;-1.628;2022-10-17T06:33:58;0.70;;;0.50;;
40737;SDS011;54759;48.094;-1.628;2022-10-17T06:36:59;0.93;;;0.40;;
40737;SDS011;54759;48.094;-1.628;2022-10-17T06:40:03;0.52;;;0.30;;
40737;SDS011;54759;48.094;-1.628;2022-10-17T06:43:08;0.32;;;0.32;;
40737;SDS011;54759;48.094;-1.628;2022-10-17T06:46:30;1.10;;;0.25;;
40737;SDS011;54759;48.094;-1.628;2022-10-17T06:49:38;0.35;;;0.20;;
40737;SDS011;54759;48.094;-1.628;2022-10-17T06:52:57;0.95;;;0.40;;
40737;SDS011;54759;48.094;-1.628;2022-10-17T06:56:17;0.40;;;0.30;;
40737;SDS011;54759;48.094;-1.628;2022-10-17T06:59:31;2.90;;;0.52;;
40737;SDS011;54759;48.094;-1.628;2022-10-17T07:02:37;2.00;;;0.40;;
40737;SDS011;54759;48.094;-1.628;2022-10-17T07:05:39;0.80;;;0.30;;
40737;SDS011;54759;48.094;-1.628;2022-10-17T07:08:41;0.70;;;0.45;;
40737;SDS011;54759;48.094;-1.628;2022-10-17T07:11:48;0.50;;;0.30;;
40737;SDS011;54759;48.094;-1.628;2022-10-17T07:14:53;0.90;;;0.30;;
40737;SDS011;54759;48.094;-1.628;2022-10-17T07:18:08;0.55;;;0.32;;
40737;SDS011;54759;48.094;-1.628;2022-10-17T07:21:12;0.60;;;0.30;;
40737;SDS011;54759;48.094;-1.628;2022-10-17T07:24:14;1.48;;;0.47;;
40737;SDS011;54759;48.094;-1.628;2022-10-17T07:27:21;2.67;;;0.40;;
40737;SDS011;54759;48.094;-1.628;2022-10-17T07:30:33;2.50;;;0.40;;
40737;SDS011;54759;48.094;-1.628;2022-10-17T07:35:17;0.20;;;0.20;;
40737;SDS011;54759;48.094;-1.628;2022-10-17T07:38:20;0.82;;;0.40;;
40737;SDS011;54759;48.094;-1.628;2022-10-17T07:41:22;0.30;;;0.30;;
40737;SDS011;54759;48.094;-1.628;2022-10-17T07:44:25;0.63;;;0.35;;
40737;SDS011;54759;48.094;-1.628;2022-10-17T07:47:27;1.08;;;0.40;;
40737;SDS011;54759;48.094;-1.628;2022-10-17T07:50:33;1.65;;;0.35;;
40737;SDS011;54759;48.094;-1.628;2022-10-17T07:53:34;0.55;;;0.40;;
40737;SDS011;54759;48.094;-1.628;2022-10-17T07:56:36;0.30;;;0.20;;
40737;SDS011;54759;48.094;-1.628;2022-10-17T07:59:39;0.98;;;0.57;;
40737;SDS011;54759;48.094;-1.628;2022-10-17T08:02:40;1.27;;;0.30;;
40737;SDS011;54759;48.094;-1.628;2022-10-17T08:05:42;1.00;;;0.20;;
40737;SDS011;54759;48.094;-1.628;2022-10-17T08:08:49;0.43;;;0.30;;
40737;SDS011;54759;48.094;-1.628;2022-10-17T08:11:50;0.45;;;0.17;;
40737;SDS011;54759;48.094;-1.628;2022-10-17T08:14:56;0.60;;;0.40;;
40737;SDS011;54759;48.094;-1.628;2022-10-17T08:23:42;1.27;;;0.30;;
40737;SDS011;54759;48.094;-1.628;2022-10-17T08:26:44;0.35;;;0.20;;
40737;SDS011;54759;48.094;-1.628;2022-10-17T08:29:49;1.55;;;0.20;;
40737;SDS011;54759;48.094;-1.628;2022-10-17T08:32:53;1.23;;;0.28;;
40737;SDS011;54759;48.094;-1.628;2022-10-17T08:35:56;1.33;;;0.30;;
40737;SDS011;54759;48.094;-1.628;2022-10-17T08:38:59;0.40;;;0.20;;
40737;SDS011;54759;48.094;-1.628;2022-10-17T08:42:04;0.20;;;0.20;;
40737;SDS011;54759;48.094;-1.628;2022-10-17T08:45:19;0.38;;;0.32;;
40737;SDS011;54759;48.094;-1.628;2022-10-17T08:48:29;0.40;;;0.35;;
40737;SDS011;54759;48.094;-1.628;2022-10-17T08:51:35;1.00;;;0.30;;
40737;SDS011;54759;48.094;-1.628;2022-10-17T08:54:46;0.70;;;0.30;;
40737;SDS011;54759;48.094;-1.628;2022-10-17T08:57:48;0.68;;;0.30;;
40737;SDS011;54759;48.094;-1.628;2022-10-17T09:00:52;2.38;;;0.20;;
40737;SDS011;54759;48.094;-1.628;2022-10-17T09:04:09;0.45;;;0.20;;
40737;SDS011;54759;48.094;-1.628;2022-10-17T09:07:39;2.13;;;0.63;;
40737;SDS011;54759;48.094;-1.628;2022-10-17T09:10:51;2.28;;;0.35;;
40737;SDS011;54759;48.094;-1.628;2022-10-17T09:14:00;0.73;;;0.25;;
40737;SDS011;54759;48.094;-1.628;2022-10-17T09:17:14;0.25;;;0.25;;
40737;SDS011;54759;48.094;-1.628;2022-10-17T09:20:23;0.40;;;0.20;;
40737;SDS011;54759;48.094;-1.628;2022-10-17T09:23:29;0.20;;;0.20;;
40737;SDS011;54759;48.094;-1.628;2022-10-17T09:26:33;0.20;;;0.20;;
40737;SDS011;54759;48.094;-1.628;2022-10-17T09:29:35;0.30;;;0.20;;
40737;SDS011;54759;48.094;-1.628;2022-10-17T09:32:44;0.63;;;0.20;;
40737;SDS011;54759;48.094;-1.628;2022-10-17T09:35:47;1.95;;;0.30;;
40737;SDS011;54759;48.094;-1.628;2022-10-17T09:38:51;1.60;;;0.10;;
40737;SDS011;54759;48.094;-1.628;2022-10-17T09:41:55;0.40;;;0.22;;
40737;SDS011;54759;48.094;-1.628;2022-10-17T09:45:02;0.17;;;0.17;;
40737;SDS011;54759;48.094;-1.628;2022-10-17T09:48:16;2.13;;;0.20;;
40737;SDS011;54759;48.094;-1.628;2022-10-17T09:51:23;0.30;;;0.20;;
40737;SDS011;54759;48.094;-1.628;2022-10-17T09:54:28;0.52;;;0.40;;
40737;SDS011;54759;48.094;-1.628;2022-10-17T09:57:49;0.63;;;0.20;;
40737;SDS011;54759;48.094;-1.628;2022-10-17T10:00:53;0.20;;;0.10;;
40737;SDS011;54759;48.094;-1.628;2022-10-17T10:04:14;0.38;;;0.10;;
40737;SDS011;54759;48.094;-1.628;2022-10-17T10:07:17;0.90;;;0.25;;
40737;SDS011;54759;48.094;-1.628;2022-10-17T10:10:22;1.17;;;0.20;;
40737;SDS011;54759;48.094;-1.628;2022-10-17T10:13:28;1.33;;;0.22;;
40737;SDS011;54759;48.094;-1.628;2022-10-17T10:16:31;0.15;;;0.15;;
40737;SDS011;54759;48.094;-1.628;2022-10-17T10:19:34;2.20;;;0.20;;
40737;SDS011;54759;48.094;-1.628;2022-10-17T10:22:40;2.25;;;0.30;;
40737;SDS011;54759;48.094;-1.628;2022-10-17T10:25:48;0.43;;;0.20;;
40737;SDS011;54759;48.094;-1.628;2022-10-17T10:28:55;0.75;;;0.10;;
40737;SDS011;54759;48.094;-1.628;2022-10-17T10:32:08;0.77;;;0.25;;
40737;SDS011;54759;48.094;-1.628;2022-10-17T10:35:17;0.20;;;0.10;;
40737;SDS011;54759;48.094;-1.628;2022-10-17T10:38:22;0.22;;;0.10;;
40737;SDS011;54759;48.094;-1.628;2022-10-17T10:41:24;0.10;;;0.10;;
40737;SDS011;54759;48.094;-1.628;2022-10-17T10:44:28;0.10;;;0.10;;
40737;SDS011;54759;48.094;-1.628;2022-10-17T10:47:32;0.47;;;0.20;;
40737;SDS011;54759;48.094;-1.628;2022-10-17T10:50:36;0.30;;;0.15;;
40737;SDS011;54759;48.094;-1.628;2022-10-17T10:53:48;1.27;;;0.20;;
40737;SDS011;54759;48.094;-1.628;2022-10-17T10:56:53;2.33;;;0.10;;
40737;SDS011;54759;48.094;-1.628;2022-10-17T10:59:59;0.10;;;0.10;;
40737;SDS011;54759;48.094;-1.628;2022-10-17T11:03:09;1.57;;;0.13;;
40737;SDS011;54759;48.094;-1.628;2022-10-17T11:06:15;0.40;;;0.38;;
40737;SDS011;54759;48.094;-1.628;2022-10-17T11:09:33;1.15;;;0.30;;
40737;SDS011;54759;48.094;-1.628;2022-10-17T11:12:49;0.38;;;0.20;;
40737;SDS011;54759;48.094;-1.628;2022-10-17T11:15:58;1.98;;;0.22;;
40737;SDS011;54759;48.094;-1.628;2022-10-17T11:19:07;0.60;;;0.28;;
40737;SDS011;54759;48.094;-1.628;2022-10-17T11:22:15;1.77;;;0.52;;
40737;SDS011;54759;48.094;-1.628;2022-10-17T11:25:30;0.60;;;0.20;;
40737;SDS011;54759;48.094;-1.628;2022-10-17T11:28:34;0.57;;;0.20;;
40737;SDS011;54759;48.094;-1.628;2022-10-17T11:31:36;1.55;;;0.50;;
40737;SDS011;54759;48.094;-1.628;2022-10-17T11:34:42;1.23;;;0.40;;
40737;SDS011;54759;48.094;-1.628;2022-10-17T11:37:49;0.85;;;0.20;;
40737;SDS011;54759;48.094;-1.628;2022-10-17T11:40:56;0.70;;;0.30;;
40737;SDS011;54759;48.094;-1.628;2022-10-17T11:44:02;1.83;;;0.40;;
40737;SDS011;54759;48.094;-1.628;2022-10-17T11:47:10;0.90;;;0.20;;
40737;SDS011;54759;48.094;-1.628;2022-10-17T11:50:21;0.40;;;0.20;;
40737;SDS011;54759;48.094;-1.628;2022-10-17T11:53:47;3.75;;;0.35;;
40737;SDS011;54759;48.094;-1.628;2022-10-17T11:57:01;0.60;;;0.20;;
40737;SDS011;54759;48.094;-1.628;2022-10-17T12:00:19;0.25;;;0.20;;
40737;SDS011;54759;48.094;-1.628;2022-10-17T12:03:38;0.63;;;0.30;;
40737;SDS011;54759;48.094;-1.628;2022-10-17T12:06:58;0.75;;;0.30;;
40737;SDS011;54759;48.094;-1.628;2022-10-17T12:10:18;0.70;;;0.30;;
40737;SDS011;54759;48.094;-1.628;2022-10-17T12:13:50;0.68;;;0.40;;
40737;SDS011;54759;48.094;-1.628;2022-10-17T12:16:55;0.55;;;0.32;;
40737;SDS011;54759;48.094;-1.628;2022-10-17T12:23:25;0.75;;;0.45;;
40737;SDS011;54759;48.094;-1.628;2022-10-17T12:26:28;0.85;;;0.50;;
40737;SDS011;54759;48.094;-1.628;2022-10-17T12:29:38;0.93;;;0.40;;
40737;SDS011;54759;48.094;-1.628;2022-10-17T12:32:52;0.60;;;0.30;;
40737;SDS011;54759;48.094;-1.628;2022-10-17T12:39:40;0.52;;;0.20;;
40737;SDS011;54759;48.094;-1.628;2022-10-17T12:42:44;1.10;;;0.50;;
40737;SDS011;54759;48.094;-1.628;2022-10-17T12:45:50;1.75;;;0.30;;
40737;SDS011;54759;48.094;-1.628;2022-10-17T12:48:58;0.35;;;0.10;;
40737;SDS011;54759;48.094;-1.628;2022-10-17T12:52:05;0.22;;;0.10;;
40737;SDS011;54759;48.094;-1.628;2022-10-17T12:55:22;1.00;;;0.10;;
40737;SDS011;54759;48.094;-1.628;2022-10-17T12:58:25;0.38;;;0.20;;
40737;SDS011;54759;48.094;-1.628;2022-10-17T13:01:32;0.70;;;0.10;;
40737;SDS011;54759;48.094;-1.628;2022-10-17T13:04:37;0.67;;;0.10;;
40737;SDS011;54759;48.094;-1.628;2022-10-17T13:07:39;0.40;;;0.30;;
40737;SDS011;54759;48.094;-1.628;2022-10-17T13:10:44;0.20;;;0.10;;
40737;SDS011;54759;48.094;-1.628;2022-10-17T13:13:55;0.25;;;0.15;;
40737;SDS011;54759;48.094;-1.628;2022-10-17T13:17:00;0.40;;;0.30;;
40737;SDS011;54759;48.094;-1.628;2022-10-17T13:20:03;0.50;;;0.17;;
40737;SDS011;54759;48.094;-1.628;2022-10-17T13:23:28;0.38;;;0.20;;
40737;SDS011;54759;48.094;-1.628;2022-10-17T13:26:32;0.22;;;0.20;;
40737;SDS011;54759;48.094;-1.628;2022-10-17T13:29:33;0.43;;;0.20;;
40737;SDS011;54759;48.094;-1.628;2022-10-17T13:32:39;0.98;;;0.70;;
40737;SDS011;54759;48.094;-1.628;2022-10-17T13:35:41;1.30;;;1.08;;
40737;SDS011;54759;48.094;-1.628;2022-10-17T13:39:04;0.88;;;0.68;;
40737;SDS011;54759;48.094;-1.628;2022-10-17T13:42:16;0.70;;;0.50;;
40737;SDS011;54759;48.094;-1.628;2022-10-17T13:45:27;0.38;;;0.30;;
40737;SDS011;54759;48.094;-1.628;2022-10-17T13:48:33;0.60;;;0.50;;
40737;SDS011;54759;48.094;-1.628;2022-10-17T13:51:40;0.32;;;0.20;;
40737;SDS011;54759;48.094;-1.628;2022-10-17T13:54:47;0.50;;;0.30;;
40737;SDS011;54759;48.094;-1.628;2022-10-17T13:57:50;0.10;;;0.10;;
40737;SDS011;54759;48.094;-1.628;2022-10-17T14:00:52;0.20;;;0.15;;
40737;SDS011;54759;48.094;-1.628;2022-10-17T14:03:55;0.40;;;0.25;;
40737;SDS011;54759;48.094;-1.628;2022-10-17T14:07:18;0.45;;;0.20;;
40737;SDS011;54759;48.094;-1.628;2022-10-17T14:10:29;0.20;;;0.20;;
40737;SDS011;54759;48.094;-1.628;2022-10-17T14:13:34;0.10;;;0.10;;
40737;SDS011;54759;48.094;-1.628;2022-10-17T14:16:38;0.20;;;0.20;;
40737;SDS011;54759;48.094;-1.628;2022-10-17T14:19:44;0.63;;;0.20;;
40737;SDS011;54759;48.094;-1.628;2022-10-17T14:26:29;0.20;;;0.15;;
40737;SDS011;54759;48.094;-1.628;2022-10-17T14:29:48;0.57;;;0.30;;
40737;SDS011;54759;48.094;-1.628;2022-10-17T14:32:51;0.40;;;0.30;;
40737;SDS011;54759;48.094;-1.628;2022-10-17T14:35:57;1.30;;;0.88;;
40737;SDS011;54759;48.094;-1.628;2022-10-17T14:39:01;1.13;;;0.80;;
40737;SDS011;54759;48.094;-1.628;2022-10-17T14:42:04;1.05;;;0.55;;
40737;SDS011;54759;48.094;-1.628;2022-10-17T14:45:07;0.73;;;0.50;;
40737;SDS011;54759;48.094;-1.628;2022-10-17T14:48:13;0.63;;;0.38;;
40737;SDS011;54759;48.094;-1.628;2022-10-17T14:51:18;0.63;;;0.50;;
40737;SDS011;54759;48.094;-1.628;2022-10-17T14:54:21;0.40;;;0.30;;
40737;SDS011;54759;48.094;-1.628;2022-10-17T14:57:27;0.52;;;0.30;;
40737;SDS011;54759;48.094;-1.628;2022-10-17T15:00:34;0.30;;;0.20;;
40737;SDS011;54759;48.094;-1.628;2022-10-17T15:03:36;0.38;;;0.30;;
40737;SDS011;54759;48.094;-1.628;2022-10-17T15:06:39;0.77;;;0.38;;
40737;SDS011;54759;48.094;-1.628;2022-10-17T15:09:46;0.20;;;0.20;;
40737;SDS011;54759;48.094;-1.628;2022-10-17T15:12:48;0.55;;;0.30;;
40737;SDS011;54759;48.094;-1.628;2022-10-17T15:16:00;0.20;;;0.20;;
40737;SDS011;54759;48.094;-1.628;2022-10-17T15:19:02;0.90;;;0.30;;
40737;SDS011;54759;48.094;-1.628;2022-10-17T15:22:04;0.20;;;0.20;;
40737;SDS011;54759;48.094;-1.628;2022-10-17T15:25:06;0.20;;;0.10;;
40737;SDS011;54759;48.094;-1.628;2022-10-17T15:28:09;0.22;;;0.20;;
40737;SDS011;54759;48.094;-1.628;2022-10-17T15:31:13;0.20;;;0.20;;
40737;SDS011;54759;48.094;-1.628;2022-10-17T15:34:19;1.23;;;0.43;;
40737;SDS011;54759;48.094;-1.628;2022-10-17T15:37:23;0.20;;;0.20;;
40737;SDS011;54759;48.094;-1.628;2022-10-17T15:40:26;0.50;;;0.30;;
40737;SDS011;54759;48.094;-1.628;2022-10-17T15:43:30;0.30;;;0.20;;
40737;SDS011;54759;48.094;-1.628;2022-10-17T15:46:32;0.35;;;0.20;;
40737;SDS011;54759;48.094;-1.628;2022-10-17T15:49:35;0.28;;;0.20;;
40737;SDS011;54759;48.094;-1.628;2022-10-17T15:52:37;0.90;;;0.30;;
40737;SDS011;54759;48.094;-1.628;2022-10-17T15:55:39;0.80;;;0.70;;
40737;SDS011;54759;48.094;-1.628;2022-10-17T15:58:42;0.80;;;0.75;;
40737;SDS011;54759;48.094;-1.628;2022-10-17T16:01:44;1.30;;;0.82;;
40737;SDS011;54759;48.094;-1.628;2022-10-17T16:04:46;0.65;;;0.52;;
40737;SDS011;54759;48.094;-1.628;2022-10-17T16:07:49;0.63;;;0.50;;
40737;SDS011;54759;48.094;-1.628;2022-10-17T16:10:51;0.43;;;0.30;;
40737;SDS011;54759;48.094;-1.628;2022-10-17T16:13:54;0.40;;;0.30;;
40737;SDS011;54759;48.094;-1.628;2022-10-17T16:21:17;0.20;;;0.20;;
40737;SDS011;54759;48.094;-1.628;2022-10-17T16:25:41;0.50;;;0.30;;
40737;SDS011;54759;48.094;-1.628;2022-10-17T16:28:45;0.20;;;0.20;;
40737;SDS011;54759;48.094;-1.628;2022-10-17T16:31:49;0.43;;;0.20;;
40737;SDS011;54759;48.094;-1.628;2022-10-17T16:34:51;0.52;;;0.30;;
40737;SDS011;54759;48.094;-1.628;2022-10-17T16:37:52;0.20;;;0.20;;
40737;SDS011;54759;48.094;-1.628;2022-10-17T16:40:55;0.60;;;0.20;;
40737;SDS011;54759;48.094;-1.628;2022-10-17T16:43:59;0.35;;;0.30;;
40737;SDS011;54759;48.094;-1.628;2022-10-17T16:47:02;0.17;;;0.15;;
40737;SDS011;54759;48.094;-1.628;2022-10-17T16:50:06;0.30;;;0.20;;
40737;SDS011;54759;48.094;-1.628;2022-10-17T16:53:08;0.40;;;0.30;;
40737;SDS011;54759;48.094;-1.628;2022-10-17T16:56:10;0.20;;;0.20;;
40737;SDS011;54759;48.094;-1.628;2022-10-17T16:59:13;0.70;;;0.28;;
40737;SDS011;54759;48.094;-1.628;2022-10-17T17:02:15;0.22;;;0.20;;
40737;SDS011;54759;48.094;-1.628;2022-10-17T17:05:21;0.40;;;0.25;;
40737;SDS011;54759;48.094;-1.628;2022-10-17T17:08:23;0.98;;;0.40;;
40737;SDS011;54759;48.094;-1.628;2022-10-17T17:11:26;0.30;;;0.30;;
40737;SDS011;54759;48.094;-1.628;2022-10-17T17:14:28;0.25;;;0.22;;
40737;SDS011;54759;48.094;-1.628;2022-10-17T17:20:48;0.52;;;0.40;;
40737;SDS011;54759;48.094;-1.628;2022-10-17T17:23:50;0.30;;;0.20;;
40737;SDS011;54759;48.094;-1.628;2022-10-17T17:26:53;0.57;;;0.40;;
40737;SDS011;54759;48.094;-1.628;2022-10-17T17:29:56;0.70;;;0.40;;
40737;SDS011;54759;48.094;-1.628;2022-10-17T17:32:57;0.50;;;0.30;;
40737;SDS011;54759;48.094;-1.628;2022-10-17T17:36:00;0.50;;;0.32;;
40737;SDS011;54759;48.094;-1.628;2022-10-17T17:39:03;0.30;;;0.22;;
40737;SDS011;54759;48.094;-1.628;2022-10-17T17:42:06;0.30;;;0.30;;
40737;SDS011;54759;48.094;-1.628;2022-10-17T17:45:08;0.30;;;0.30;;
40737;SDS011;54759;48.094;-1.628;2022-10-17T17:48:10;0.60;;;0.30;;
40737;SDS011;54759;48.094;-1.628;2022-10-17T17:51:14;0.50;;;0.30;;
40737;SDS011;54759;48.094;-1.628;2022-10-17T17:54:17;0.25;;;0.22;;
40737;SDS011;54759;48.094;-1.628;2022-10-17T17:57:19;0.40;;;0.35;;
40737;SDS011;54759;48.094;-1.628;2022-10-17T18:00:20;0.68;;;0.30;;
40737;SDS011;54759;48.094;-1.628;2022-10-17T18:03:22;0.40;;;0.22;;
40737;SDS011;54759;48.094;-1.628;2022-10-17T18:06:24;0.20;;;0.17;;
40737;SDS011;54759;48.094;-1.628;2022-10-17T18:09:26;0.45;;;0.30;;
40737;SDS011;54759;48.094;-1.628;2022-10-17T18:12:28;0.32;;;0.30;;
40737;SDS011;54759;48.094;-1.628;2022-10-17T18:15:30;0.95;;;0.52;;
40737;SDS011;54759;48.094;-1.628;2022-10-17T18:21:33;0.40;;;0.40;;
40737;SDS011;54759;48.094;-1.628;2022-10-17T18:24:35;0.40;;;0.40;;
40737;SDS011;54759;48.094;-1.628;2022-10-17T18:27:37;0.73;;;0.50;;
40737;SDS011;54759;48.094;-1.628;2022-10-17T18:30:39;0.68;;;0.40;;
40737;SDS011;54759;48.094;-1.628;2022-10-17T18:33:40;0.70;;;0.43;;
40737;SDS011;54759;48.094;-1.628;2022-10-17T18:36:44;0.47;;;0.28;;
40737;SDS011;54759;48.094;-1.628;2022-10-17T18:39:45;0.40;;;0.30;;
40737;SDS011;54759;48.094;-1.628;2022-10-17T18:42:51;0.57;;;0.50;;
40737;SDS011;54759;48.094;-1.628;2022-10-17T18:45:54;0.40;;;0.40;;
40737;SDS011;54759;48.094;-1.628;2022-10-17T18:48:56;1.05;;;0.68;;
40737;SDS011;54759;48.094;-1.628;2022-10-17T18:51:57;0.88;;;0.63;;
40737;SDS011;54759;48.094;-1.628;2022-10-17T18:54:59;1.00;;;0.70;;
40737;SDS011;54759;48.094;-1.628;2022-10-17T19:01:03;1.08;;;0.60;;
40737;SDS011;54759;48.094;-1.628;2022-10-17T19:04:05;0.82;;;0.60;;
40737;SDS011;54759;48.094;-1.628;2022-10-17T19:10:08;0.43;;;0.43;;
40737;SDS011;54759;48.094;-1.628;2022-10-17T19:13:10;0.80;;;0.50;;
40737;SDS011;54759;48.094;-1.628;2022-10-17T19:16:13;0.88;;;0.50;;
40737;SDS011;54759;48.094;-1.628;2022-10-17T19:19:20;0.60;;;0.60;;
40737;SDS011;54759;48.094;-1.628;2022-10-17T19:22:23;0.40;;;0.30;;
40737;SDS011;54759;48.094;-1.628;2022-10-17T19:25:27;0.52;;;0.50;;